createdAt,value
2017-05-21T00:00:31.013Z,63.9
2017-05-21T00:01:33.228Z,63.9
2017-05-21T00:02:36.077Z,63.8
2017-05-21T00:03:38.931Z,63.8
2017-05-21T00:04:41.779Z,63.9
2017-05-21T00:05:44.881Z,64.1
2017-05-21T00:06:47.228Z,63.9
2017-05-21T00:07:50.083Z,63.8
2017-05-21T00:08:52.934Z,64
2017-05-21T00:09:55.148Z,64.1
2017-05-21T00:10:58.300Z,64.1
2017-05-21T00:12:01.146Z,64.2
2017-05-21T00:13:03.866Z,64.2
2017-05-21T00:14:06.446Z,64.3
2017-05-21T00:15:09.164Z,64.3
2017-05-21T00:16:12.267Z,64
2017-05-21T00:17:14.486Z,64.2
2017-05-21T00:18:17.397Z,64.2
2017-05-21T00:19:20.248Z,64.3
2017-05-21T00:20:23.097Z,64.4
2017-05-21T00:21:26.197Z,64.4
2017-05-21T00:22:28.414Z,64.4
2017-05-21T00:23:31.633Z,64.5
2017-05-21T00:24:34.361Z,64.5
2017-05-21T00:25:37.074Z,64.6
2017-05-21T00:26:40.037Z,64.5
2017-05-21T00:27:42.254Z,64.8
2017-05-21T00:28:45.122Z,64.7
2017-05-21T00:29:47.977Z,64.8
2017-05-21T00:30:50.876Z,64.9
2017-05-21T00:31:54.028Z,65.1
2017-05-21T00:32:56.375Z,65.2
2017-05-21T00:33:59.227Z,65.1
2017-05-21T00:35:01.443Z,65.3
2017-05-21T00:36:04.793Z,65.3
2017-05-21T00:37:07.631Z,65.3
2017-05-21T00:38:10.085Z,65.4
2017-05-21T00:39:12.936Z,65.6
2017-05-21T00:40:15.581Z,65.4
2017-05-21T00:41:18.430Z,65.8
2017-05-21T00:42:21.536Z,65.7
2017-05-21T00:43:23.882Z,65.8
2017-05-21T00:45:29.145Z,66.2
2017-05-21T00:46:31.994Z,66.1
2017-05-21T00:47:35.014Z,66
2017-05-21T00:48:38.211Z,66.1
2017-05-21T00:49:40.426Z,66.3
2017-05-21T00:50:43.624Z,66.6
2017-05-21T00:51:45.842Z,66.7
2017-05-21T00:52:48.812Z,66.7
2017-05-21T00:53:51.723Z,66.8
2017-05-21T00:54:53.933Z,66.8
2017-05-21T00:55:56.782Z,67
2017-05-21T00:56:59.639Z,66.9
2017-05-21T00:58:02.744Z,66.9
2017-05-21T00:59:05.091Z,67.1
2017-05-21T01:00:07.978Z,67.1
2017-05-21T01:01:10.688Z,67
2017-05-21T01:02:13.402Z,67.1
2017-05-21T01:03:16.507Z,67.2
2017-05-21T01:04:18.851Z,67.1
2017-05-21T01:05:21.706Z,67.5
2017-05-21T01:06:24.552Z,67.6
2017-05-21T01:07:27.269Z,67.3
2017-05-21T01:08:30.374Z,67.5
2017-05-21T01:09:32.724Z,67.4
2017-05-21T01:10:35.174Z,67.5
2017-05-21T01:12:40.937Z,67.4
2017-05-21T01:13:44.045Z,67.4
2017-05-21T01:14:46.398Z,67.6
2017-05-21T01:15:49.111Z,67.5
2017-05-21T01:16:51.959Z,67.5
2017-05-21T01:17:54.805Z,67.6
2017-05-21T01:18:57.415Z,67.5
2017-05-21T01:20:00.283Z,67.5
2017-05-21T01:21:03.130Z,67.5
2017-05-21T01:22:05.342Z,67.5
2017-05-21T01:23:08.194Z,67.6
2017-05-21T01:24:11.210Z,67.5
2017-05-21T01:25:13.931Z,67.5
2017-05-21T01:26:16.777Z,67.5
2017-05-21T01:27:19.177Z,67.5
2017-05-21T01:28:21.891Z,67.3
2017-05-21T01:29:25.096Z,67.4
2017-05-21T01:30:27.809Z,67.6
2017-05-21T01:31:30.395Z,67.5
2017-05-21T01:32:33.245Z,67.4
2017-05-21T01:33:35.961Z,67.5
2017-05-21T01:34:38.709Z,67.4
2017-05-21T01:35:41.435Z,67.5
2017-05-21T01:36:44.149Z,67.5
2017-05-21T01:37:47.000Z,67.6
2017-05-21T01:38:49.852Z,67.7
2017-05-21T01:39:52.452Z,67.8
2017-05-21T01:40:55.311Z,67.7
2017-05-21T01:41:57.658Z,67.5
2017-05-21T01:43:00.507Z,67.5
2017-05-21T01:44:03.356Z,67.5
2017-05-21T01:45:06.376Z,67.4
2017-05-21T01:46:08.588Z,67.4
2017-05-21T01:47:11.806Z,67.5
2017-05-21T01:48:14.163Z,67.4
2017-05-21T01:49:17.020Z,67.6
2017-05-21T01:50:20.119Z,67.5
2017-05-21T01:51:22.475Z,67.7
2017-05-21T01:52:25.324Z,67.6
2017-05-21T01:53:28.040Z,67.8
2017-05-21T01:54:31.463Z,67.9
2017-05-21T01:55:33.430Z,68
2017-05-21T01:56:36.284Z,68.4
2017-05-21T01:57:39.002Z,68.5
2017-05-21T01:58:41.853Z,68.7
2017-05-21T01:59:44.707Z,68.6
2017-05-21T02:00:47.354Z,68.8
2017-05-21T02:02:52.485Z,69.3
2017-05-21T02:03:55.704Z,69.4
2017-05-21T02:04:58.110Z,69.6
2017-05-21T02:06:01.212Z,69.7
2017-05-21T02:07:03.424Z,69.8
2017-05-21T02:08:06.329Z,69.6
2017-05-21T02:09:09.046Z,69.8
2017-05-21T02:10:11.759Z,69.9
2017-05-21T02:11:14.728Z,69.8
2017-05-21T02:12:17.579Z,69.9
2017-05-21T02:13:20.428Z,70
2017-05-21T02:14:22.774Z,69.9
2017-05-21T02:15:25.625Z,70
2017-05-21T02:16:28.461Z,69.9
2017-05-21T02:17:31.313Z,70.1
2017-05-21T02:18:34.027Z,70.5
2017-05-21T02:19:36.610Z,70.6
2017-05-21T02:20:39.457Z,70.8
2017-05-21T02:21:42.606Z,70.8
2017-05-21T02:22:44.955Z,70.9
2017-05-21T02:24:50.217Z,71.1
2017-05-21T02:25:53.066Z,71.1
2017-05-21T02:26:56.216Z,71
2017-05-21T02:27:58.567Z,71
2017-05-21T02:29:01.419Z,71
2017-05-21T02:30:04.000Z,70.9
2017-05-21T02:31:06.715Z,70.9
2017-05-21T02:32:09.863Z,70.9
2017-05-21T02:33:12.077Z,71
2017-05-21T02:34:14.931Z,71.1
2017-05-21T02:35:17.782Z,71.3
2017-05-21T02:36:20.499Z,71.5
2017-05-21T02:37:23.604Z,71.6
2017-05-21T02:38:26.003Z,71.5
2017-05-21T02:39:28.848Z,71.8
2017-05-21T02:40:31.565Z,71.6
2017-05-21T02:41:33.772Z,71.6
2017-05-21T02:42:37.241Z,71.8
2017-05-21T02:43:39.585Z,71.9
2017-05-21T02:44:42.299Z,72
2017-05-21T02:45:45.011Z,71.9
2017-05-21T02:46:47.865Z,71.9
2017-05-21T02:47:50.964Z,71.9
2017-05-21T02:48:53.317Z,72
2017-05-21T02:49:56.167Z,72
2017-05-21T02:50:58.510Z,72
2017-05-21T02:52:01.162Z,71.9
2017-05-21T02:53:04.329Z,72
2017-05-21T02:54:06.672Z,72
2017-05-21T02:55:09.251Z,71.9
2017-05-21T02:56:12.113Z,71.9
2017-05-21T02:57:14.960Z,71.9
2017-05-21T02:58:18.061Z,72
2017-05-21T02:59:20.411Z,72.1
2017-05-21T03:00:23.262Z,72
2017-05-21T03:01:26.104Z,72
2017-05-21T03:02:28.686Z,72
2017-05-21T03:03:31.781Z,71.9
2017-05-21T03:04:33.990Z,71.9
2017-05-21T03:05:36.704Z,72
2017-05-21T03:06:39.421Z,71.8
2017-05-21T03:07:42.136Z,72
2017-05-21T03:08:45.244Z,71.9
2017-05-21T03:09:47.453Z,71.9
2017-05-21T03:10:50.294Z,72.1
2017-05-21T03:11:53.141Z,72.1
2017-05-21T03:12:55.856Z,72
2017-05-21T03:13:59.004Z,72.1
2017-05-21T03:15:01.347Z,72.1
2017-05-21T03:16:04.218Z,72.1
2017-05-21T03:17:07.073Z,72.3
2017-05-21T03:18:09.846Z,72.3
2017-05-21T03:19:12.490Z,72.5
2017-05-21T03:20:14.837Z,72.4
2017-05-21T03:21:17.472Z,72.5
2017-05-21T03:22:20.719Z,72.5
2017-05-21T03:23:23.431Z,72.3
2017-05-21T03:24:25.948Z,72.2
2017-05-21T03:25:28.657Z,72.3
2017-05-21T03:26:31.377Z,72.2
2017-05-21T03:27:34.224Z,72.2
2017-05-21T03:28:36.933Z,72.2
2017-05-21T03:29:39.758Z,72.4
2017-05-21T03:30:42.469Z,72.3
2017-05-21T03:31:44.816Z,72.4
2017-05-21T03:32:47.670Z,72.4
2017-05-21T03:33:50.925Z,72.5
2017-05-21T03:34:53.574Z,72.3
2017-05-21T03:35:55.916Z,72.7
2017-05-21T03:36:58.767Z,72.7
2017-05-21T03:38:01.610Z,72.5
2017-05-21T03:39:03.957Z,72.5
2017-05-21T03:40:07.055Z,72.7
2017-05-21T03:41:09.400Z,72.5
2017-05-21T03:42:12.251Z,72.5
2017-05-21T03:43:15.023Z,72.4
2017-05-21T03:44:17.737Z,72.5
2017-05-21T03:45:20.703Z,72
2017-05-21T03:46:23.045Z,72
2017-05-21T03:47:25.628Z,71.8
2017-05-21T03:48:28.708Z,71.8
2017-05-21T03:49:32.117Z,71.5
2017-05-21T03:50:34.121Z,71.4
2017-05-21T03:51:36.830Z,71.2
2017-05-21T03:53:42.086Z,71
2017-05-21T03:54:44.938Z,70.9
2017-05-21T03:55:48.040Z,70.6
2017-05-21T03:56:50.384Z,70.3
2017-05-21T03:57:53.234Z,70.2
2017-05-21T03:58:56.642Z,70.1
2017-05-21T03:59:58.482Z,69.6
2017-05-21T04:01:01.690Z,69.6
2017-05-21T04:02:04.033Z,69.4
2017-05-21T04:03:06.880Z,69.5
2017-05-21T04:04:09.592Z,69.4
2017-05-21T04:05:12.307Z,69.2
2017-05-21T04:06:15.407Z,69.3
2017-05-21T04:07:17.748Z,69.2
2017-05-21T04:08:20.458Z,69.2
2017-05-21T04:09:23.312Z,69.1
2017-05-21T04:10:26.027Z,69
2017-05-21T04:11:29.128Z,68.8
2017-05-21T04:12:31.466Z,68.8
2017-05-21T04:13:34.178Z,68.6
2017-05-21T04:14:37.029Z,68.2
2017-05-21T04:15:39.379Z,68.2
2017-05-21T04:16:42.846Z,68.1
2017-05-21T04:17:45.187Z,67.8
2017-05-21T04:18:48.037Z,68.1
2017-05-21T04:19:50.614Z,67.8
2017-05-21T04:20:54.022Z,68
2017-05-21T04:21:56.119Z,67.7
2017-05-21T04:22:58.973Z,67.2
2017-05-21T04:24:01.319Z,66.8
2017-05-21T04:25:04.172Z,66.9
2017-05-21T04:26:07.023Z,66.4
2017-05-21T04:27:10.126Z,66
2017-05-21T04:28:12.334Z,66.2
2017-05-21T04:29:15.056Z,66.4
2017-05-21T04:30:17.905Z,66.8
2017-05-21T04:31:20.616Z,66.4
2017-05-21T04:32:23.777Z,66.1
2017-05-21T04:33:26.118Z,65.3
2017-05-21T04:34:28.694Z,64.8
2017-05-21T04:35:31.541Z,64.9
2017-05-21T04:36:34.390Z,64.7
2017-05-21T04:37:37.535Z,64.7
2017-05-21T04:38:39.875Z,64.7
2017-05-21T04:39:42.587Z,64.7
2017-05-21T04:40:45.438Z,64.4
2017-05-21T04:41:48.280Z,63.8
2017-05-21T04:42:51.243Z,63.4
2017-05-21T04:43:54.649Z,63.3
2017-05-21T04:44:56.499Z,63.1
2017-05-21T04:45:59.347Z,62.6
2017-05-21T04:47:02.192Z,61.5
2017-05-21T04:48:05.905Z,62.2
2017-05-21T04:49:07.790Z,60.8
2017-05-21T04:50:10.639Z,61.2
2017-05-21T04:51:13.079Z,61.3
2017-05-21T04:52:16.056Z,60.3
2017-05-21T04:53:19.074Z,60.5
2017-05-21T04:54:21.290Z,60.9
2017-05-21T04:55:24.372Z,60.9
2017-05-21T04:56:27.277Z,59.6
2017-05-21T04:57:29.993Z,59.1
2017-05-21T04:58:32.879Z,59.2
2017-05-21T04:59:35.219Z,59.2
2017-05-21T05:00:37.935Z,59.1
2017-05-21T05:01:41.156Z,59.4
2017-05-21T05:02:44.417Z,58.8
2017-05-21T05:03:46.739Z,58.8
2017-05-21T05:04:49.082Z,58.3
2017-05-21T05:05:52.167Z,57.6
2017-05-21T05:06:55.015Z,57.4
2017-05-21T05:07:57.863Z,57.3
2017-05-21T05:09:00.461Z,57.4
2017-05-21T05:10:03.314Z,57.5
2017-05-21T05:11:06.160Z,57.8
2017-05-21T05:12:08.871Z,57.1
2017-05-21T05:13:11.715Z,57.5
2017-05-21T05:14:14.733Z,56.7
2017-05-21T05:15:17.076Z,56.6
2017-05-21T05:16:19.928Z,56.2
2017-05-21T05:17:22.774Z,56
2017-05-21T05:18:25.350Z,55.9
2017-05-21T05:19:28.365Z,55.8
2017-05-21T05:20:31.651Z,56.1
2017-05-21T05:21:34.001Z,55.7
2017-05-21T05:22:36.848Z,55.8
2017-05-21T05:23:39.429Z,55
2017-05-21T05:24:42.578Z,55.3
2017-05-21T05:25:44.929Z,55.6
2017-05-21T05:26:47.636Z,55.7
2017-05-21T05:27:50.719Z,55.1
2017-05-21T05:28:53.559Z,55.3
2017-05-21T05:29:56.717Z,54.9
2017-05-21T05:30:59.061Z,54
2017-05-21T05:32:01.936Z,54.2
2017-05-21T05:33:04.786Z,54.8
2017-05-21T05:34:07.633Z,54
2017-05-21T05:35:10.779Z,54.7
2017-05-21T05:36:13.122Z,54.3
2017-05-21T05:37:15.965Z,55
2017-05-21T05:38:18.809Z,54.4
2017-05-21T05:39:21.534Z,54.1
2017-05-21T05:40:24.544Z,54.3
2017-05-21T05:41:26.887Z,53.5
2017-05-21T05:42:29.739Z,53.8
2017-05-21T05:43:32.588Z,53.4
2017-05-21T05:44:35.440Z,53.3
2017-05-21T05:45:38.460Z,53
2017-05-21T05:46:41.173Z,52.7
2017-05-21T05:47:44.078Z,52.5
2017-05-21T05:48:46.792Z,51.9
2017-05-21T05:49:49.643Z,51.9
2017-05-21T05:50:52.741Z,52
2017-05-21T05:51:55.136Z,52.1
2017-05-21T05:52:57.989Z,52.5
2017-05-21T05:54:00.836Z,51.6
2017-05-21T05:55:03.683Z,52.2
2017-05-21T05:56:06.778Z,52.2
2017-05-21T05:57:09.122Z,51.5
2017-05-21T05:58:11.834Z,50.8
2017-05-21T05:59:15.067Z,50.5
2017-05-21T06:00:17.972Z,50.8
2017-05-21T06:01:20.984Z,51.6
2017-05-21T06:02:23.326Z,50.5
2017-05-21T06:03:26.042Z,50.9
2017-05-21T06:04:29.257Z,50.8
2017-05-21T06:05:31.966Z,50.3
2017-05-21T06:06:35.059Z,51.1
2017-05-21T06:07:37.265Z,50.7
2017-05-21T06:08:40.486Z,50.3
2017-05-21T06:09:43.338Z,49.6
2017-05-21T06:10:46.189Z,50.5
2017-05-21T06:11:49.291Z,48.5
2017-05-21T06:12:51.866Z,49.6
2017-05-21T06:13:54.709Z,50.3
2017-05-21T06:14:57.555Z,49.9
2017-05-21T06:16:00.402Z,50.5
2017-05-21T06:18:06.418Z,49.6
2017-05-21T06:19:08.631Z,49.8
2017-05-21T06:20:11.485Z,49.9
2017-05-21T06:22:17.243Z,49
2017-05-21T06:23:20.387Z,47.6
2017-05-21T06:24:23.107Z,47.5
2017-05-21T06:25:25.819Z,48.1
2017-05-21T06:26:28.898Z,48.7
2017-05-21T06:27:31.476Z,48.2
2017-05-21T06:28:34.626Z,48.1
2017-05-21T06:29:37.476Z,48.9
2017-05-21T06:30:40.331Z,48.5
2017-05-21T06:31:43.177Z,48.3
2017-05-21T06:32:45.819Z,48
2017-05-21T06:33:48.831Z,48.2
2017-05-21T06:34:51.677Z,47.9
2017-05-21T06:35:54.527Z,46.8
2017-05-21T06:36:56.930Z,48
2017-05-21T06:37:59.779Z,47.4
2017-05-21T06:39:02.938Z,48.7
2017-05-21T06:40:05.785Z,48.7
2017-05-21T06:41:08.632Z,48.5
2017-05-21T06:42:11.481Z,47.2
2017-05-21T06:43:14.189Z,46.8
2017-05-21T06:44:17.271Z,47
2017-05-21T06:45:20.118Z,47.5
2017-05-21T06:47:25.879Z,48.6
2017-05-21T06:48:28.458Z,48.3
2017-05-21T06:49:31.553Z,48.3
2017-05-21T06:50:34.266Z,48.1
2017-05-21T06:51:36.976Z,48.5
2017-05-21T06:52:39.825Z,45.6
2017-05-21T06:53:42.542Z,45.7
2017-05-21T06:54:45.645Z,45.5
2017-05-21T06:55:48.361Z,45.5
2017-05-21T06:56:51.076Z,45.5
2017-05-21T06:57:54.421Z,44
2017-05-21T06:58:57.272Z,45.4
2017-05-21T07:00:00.245Z,45.8
2017-05-21T07:01:02.591Z,46.5
2017-05-21T07:02:05.439Z,46.2
2017-05-21T07:03:08.657Z,45.8
2017-05-21T07:04:11.504Z,46.6
2017-05-21T07:05:14.602Z,46.5
2017-05-21T07:06:16.815Z,44.3
2017-05-21T07:07:19.533Z,44.8
2017-05-21T07:08:22.944Z,45.2
2017-05-21T07:09:25.792Z,44.5
2017-05-21T07:10:28.676Z,45.2
2017-05-21T07:11:31.522Z,44.2
2017-05-21T07:12:34.237Z,45.2
2017-05-21T07:13:37.086Z,44.3
2017-05-21T07:14:39.937Z,43.5
2017-05-21T07:15:43.095Z,42.6
2017-05-21T07:16:45.811Z,44.1
2017-05-21T07:17:48.525Z,44.6
2017-05-21T07:19:54.013Z,44.2
2017-05-21T07:20:57.120Z,43
2017-05-21T07:21:59.971Z,41.3
2017-05-21T07:24:05.595Z,41.7
2017-05-21T07:25:08.444Z,42.4
2017-05-21T07:26:11.544Z,41.5
2017-05-21T07:27:14.256Z,41.5
2017-05-21T07:28:17.101Z,41.1
2017-05-21T07:29:19.958Z,41.9
2017-05-21T07:30:22.806Z,40.8
2017-05-21T07:31:25.769Z,41.3
2017-05-21T07:32:28.615Z,41.6
2017-05-21T07:33:31.326Z,41.9
2017-05-21T07:34:34.548Z,42.6
2017-05-21T07:35:37.396Z,42.7
2017-05-21T07:36:40.365Z,41.7
2017-05-21T07:37:43.221Z,41.1
2017-05-21T07:38:45.937Z,41
2017-05-21T07:39:48.644Z,40.7
2017-05-21T07:40:51.490Z,41.5
2017-05-21T07:41:55.088Z,41.5
2017-05-21T07:42:57.432Z,42.6
2017-05-21T07:44:00.286Z,44.3
2017-05-21T07:45:03.005Z,44.1
2017-05-21T07:46:06.231Z,44.2
2017-05-21T07:47:09.330Z,42.9
2017-05-21T07:48:11.671Z,42.9
2017-05-21T07:49:14.888Z,42.9
2017-05-21T07:50:17.734Z,42
2017-05-21T07:51:20.310Z,41.6
2017-05-21T07:52:23.774Z,41.4
2017-05-21T07:53:26.122Z,41.2
2017-05-21T07:54:28.969Z,41.1
2017-05-21T07:55:31.814Z,42
2017-05-21T07:56:34.669Z,41.5
2017-05-21T07:57:38.193Z,41.7
2017-05-21T07:58:40.538Z,41.9
2017-05-21T07:59:43.248Z,43.6
2017-05-21T08:00:45.961Z,44
2017-05-21T08:01:49.310Z,44.5
2017-05-21T08:02:52.411Z,45.7
2017-05-21T08:03:55.122Z,45.3
2017-05-21T08:04:57.703Z,43.9
2017-05-21T08:06:00.412Z,42.8
2017-05-21T08:07:03.255Z,42.7
2017-05-21T08:08:06.585Z,42
2017-05-21T08:10:12.211Z,39.5
2017-05-21T08:11:15.058Z,40.1
2017-05-21T08:12:17.905Z,39.5
2017-05-21T08:13:21.001Z,39.3
2017-05-21T08:14:23.210Z,39
2017-05-21T08:15:26.561Z,38.9
2017-05-21T08:16:29.139Z,38.7
2017-05-21T08:17:31.986Z,38.8
2017-05-21T08:18:35.094Z,38.4
2017-05-21T08:19:37.844Z,38
2017-05-21T08:20:40.556Z,38.3
2017-05-21T08:21:43.273Z,38.6
2017-05-21T08:22:46.487Z,39.3
2017-05-21T08:23:49.584Z,39.2
2017-05-21T08:24:52.433Z,38.3
2017-05-21T08:25:55.277Z,38.6
2017-05-21T08:26:57.987Z,38.8
2017-05-21T08:28:00.835Z,38.9
2017-05-21T08:29:03.944Z,38.9
2017-05-21T08:30:06.794Z,38.5
2017-05-21T08:31:09.645Z,38.3
2017-05-21T08:32:12.229Z,38.6
2017-05-21T08:33:15.581Z,38.3
2017-05-21T08:34:18.605Z,38.1
2017-05-21T08:35:21.314Z,37.8
2017-05-21T08:36:24.159Z,38.7
2017-05-21T08:37:27.007Z,38.7
2017-05-21T08:38:29.587Z,38
2017-05-21T08:39:32.981Z,38.6
2017-05-21T08:40:35.559Z,38.9
2017-05-21T08:41:38.408Z,39.6
2017-05-21T08:42:41.255Z,39.8
2017-05-21T08:43:44.108Z,39
2017-05-21T08:44:47.122Z,38.8
2017-05-21T08:45:49.974Z,38.9
2017-05-21T08:46:52.687Z,38.8
2017-05-21T08:47:55.898Z,39.5
2017-05-21T08:48:58.474Z,38.4
2017-05-21T08:50:02.082Z,38.2
2017-05-21T08:51:04.427Z,38
2017-05-21T08:52:07.338Z,37.4
2017-05-21T08:53:10.192Z,37.3
2017-05-21T08:54:13.039Z,37.8
2017-05-21T08:56:19.047Z,37.6
2017-05-21T08:57:21.957Z,37.9
2017-05-21T08:58:24.809Z,37.8
2017-05-21T08:59:27.897Z,37.9
2017-05-21T09:00:30.749Z,38.1
2017-05-21T09:01:33.846Z,38
2017-05-21T09:02:36.186Z,37.9
2017-05-21T09:03:39.028Z,38.4
2017-05-21T09:04:42.241Z,38.6
2017-05-21T09:05:44.956Z,39.6
2017-05-21T09:06:48.106Z,39.8
2017-05-21T09:07:50.692Z,40.2
2017-05-21T09:08:53.403Z,40.6
2017-05-21T09:09:56.481Z,41.4
2017-05-21T09:10:59.565Z,40.7
2017-05-21T09:12:02.713Z,41.1
2017-05-21T09:13:05.057Z,41.6
2017-05-21T09:14:08.278Z,41.8
2017-05-21T09:15:10.992Z,41.7
2017-05-21T09:16:13.707Z,42.2
2017-05-21T09:17:16.805Z,42.5
2017-05-21T09:18:19.656Z,42.3
2017-05-21T09:19:22.378Z,42.7
2017-05-21T09:20:25.089Z,40.5
2017-05-21T09:21:28.304Z,40.9
2017-05-21T09:22:31.405Z,40.9
2017-05-21T09:23:34.119Z,40.2
2017-05-21T09:24:36.826Z,39.9
2017-05-21T09:25:39.671Z,40
2017-05-21T09:26:42.756Z,38.9
2017-05-21T09:27:45.854Z,38.4
2017-05-21T09:28:48.206Z,38.7
2017-05-21T09:29:51.420Z,38.1
2017-05-21T09:30:54.268Z,37.6
2017-05-21T09:31:56.975Z,38.3
2017-05-21T09:33:00.007Z,39
2017-05-21T09:34:02.585Z,38.8
2017-05-21T09:35:05.802Z,39
2017-05-21T09:36:08.648Z,39.2
2017-05-21T09:37:11.362Z,39.8
2017-05-21T09:38:14.464Z,40.5
2017-05-21T09:39:17.318Z,41
2017-05-21T09:40:20.167Z,39.7
2017-05-21T09:41:23.017Z,40.1
2017-05-21T09:42:25.730Z,40.4
2017-05-21T09:44:32.112Z,40.6
2017-05-21T09:45:34.324Z,40.9
2017-05-21T09:46:37.548Z,40.8
2017-05-21T09:47:40.392Z,41.3
2017-05-21T09:48:43.116Z,42.1
2017-05-21T09:49:46.218Z,42
2017-05-21T09:50:48.932Z,41.9
2017-05-21T09:51:51.647Z,41.3
2017-05-21T09:53:57.410Z,40.4
2017-05-21T09:55:01.014Z,40.6
2017-05-21T09:57:06.133Z,40.6
2017-05-21T09:58:09.347Z,40.5
2017-05-21T09:59:12.191Z,40.4
2017-05-21T10:01:18.205Z,41.2
2017-05-21T10:02:20.918Z,40.8
2017-05-21T10:03:23.769Z,41.5
2017-05-21T10:04:26.485Z,41.7
2017-05-21T10:05:29.207Z,41.3
2017-05-21T10:06:32.675Z,41.6
2017-05-21T10:07:35.017Z,41.7
2017-05-21T10:08:37.737Z,40.9
2017-05-21T10:09:40.447Z,41.4
2017-05-21T10:10:43.664Z,38
2017-05-21T10:11:46.758Z,38.7
2017-05-21T10:12:49.469Z,37.1
2017-05-21T10:14:55.235Z,38
2017-05-21T10:15:57.943Z,38.6
2017-05-21T10:17:01.044Z,36.8
2017-05-21T10:18:03.891Z,38.1
2017-05-21T10:19:06.608Z,37.2
2017-05-21T10:20:09.457Z,38.4
2017-05-21T10:21:12.308Z,35.8
2017-05-21T10:22:15.411Z,34.8
2017-05-21T10:23:18.260Z,34.4
2017-05-21T10:24:21.109Z,33.5
2017-05-21T10:25:23.823Z,34.5
2017-05-21T10:26:26.671Z,36.2
2017-05-21T10:27:30.137Z,37.2
2017-05-21T10:28:32.353Z,37.8
2017-05-21T10:29:35.574Z,38.3
2017-05-21T10:31:41.345Z,38.6
2017-05-21T10:32:44.443Z,39
2017-05-21T10:33:47.291Z,38.7
2017-05-21T10:34:50.007Z,39.3
2017-05-21T10:35:52.720Z,39.4
2017-05-21T10:36:55.938Z,39.7
2017-05-21T10:37:59.097Z,40
2017-05-21T10:39:01.442Z,39.7
2017-05-21T10:40:04.156Z,39.1
2017-05-21T10:41:07.009Z,38.9
2017-05-21T10:42:10.226Z,39
2017-05-21T10:43:13.328Z,39
2017-05-21T10:44:15.909Z,39.1
2017-05-21T10:45:18.827Z,38.1
2017-05-21T10:46:21.673Z,38.1
2017-05-21T10:47:24.522Z,38.4
2017-05-21T10:48:27.488Z,38.4
2017-05-21T10:49:30.346Z,38.7
2017-05-21T10:50:33.194Z,37.6
2017-05-21T10:51:35.912Z,37.7
2017-05-21T10:52:38.493Z,35.2
2017-05-21T10:53:42.010Z,36.1
2017-05-21T10:54:44.591Z,36.6
2017-05-21T10:55:47.437Z,37.1
2017-05-21T10:56:50.019Z,37.3
2017-05-21T10:57:53.375Z,37.2
2017-05-21T10:58:56.525Z,36
2017-05-21T10:59:59.240Z,35.4
2017-05-21T11:01:01.952Z,35.9
2017-05-21T11:02:04.799Z,35.7
2017-05-21T11:03:07.647Z,36.2
2017-05-21T11:04:10.745Z,36.2
2017-05-21T11:05:13.457Z,36.4
2017-05-21T11:06:16.307Z,36.5
2017-05-21T11:07:19.022Z,36
2017-05-21T11:09:24.766Z,36.4
2017-05-21T11:10:27.982Z,36.6
2017-05-21T11:11:30.834Z,37.5
2017-05-21T11:12:33.545Z,37.2
2017-05-21T11:13:36.256Z,35.9
2017-05-21T11:14:39.725Z,34.5
2017-05-21T11:15:41.937Z,35.4
2017-05-21T11:16:45.153Z,35.7
2017-05-21T11:17:48.003Z,33.2
2017-05-21T11:18:50.717Z,33
2017-05-21T11:19:54.054Z,32.7
2017-05-21T11:20:56.402Z,33.6
2017-05-21T11:21:59.249Z,33.4
2017-05-21T11:23:02.461Z,34.9
2017-05-21T11:24:05.307Z,35.5
2017-05-21T11:25:08.402Z,35.3
2017-05-21T11:26:11.116Z,35
2017-05-21T11:27:13.973Z,35.2
2017-05-21T11:28:16.817Z,34.8
2017-05-21T11:29:19.531Z,35.3
2017-05-21T11:30:22.625Z,35.2
2017-05-21T11:31:25.339Z,35.6
2017-05-21T11:32:28.054Z,35.5
2017-05-21T11:33:31.458Z,35.5
2017-05-21T11:34:33.899Z,34.9
2017-05-21T11:35:37.548Z,35.9
2017-05-21T11:36:39.886Z,36.3
2017-05-21T11:37:42.595Z,35.6
2017-05-21T11:38:45.682Z,35.6
2017-05-21T11:39:48.531Z,36
2017-05-21T11:40:51.550Z,36
2017-05-21T11:41:54.392Z,35.2
2017-05-21T11:42:57.108Z,35.2
2017-05-21T11:44:00.331Z,35.3
2017-05-21T11:45:03.041Z,36.4
2017-05-21T11:46:05.740Z,36.4
2017-05-21T11:47:08.584Z,35.9
2017-05-21T11:48:11.291Z,32.5
2017-05-21T11:49:14.507Z,33.6
2017-05-21T11:50:17.355Z,34.1
2017-05-21T11:51:20.374Z,34.9
2017-05-21T11:52:23.222Z,35.2
2017-05-21T11:53:26.069Z,34.4
2017-05-21T11:54:28.789Z,36.2
2017-05-21T11:55:31.641Z,34.6
2017-05-21T11:56:34.739Z,35.1
2017-05-21T11:57:37.525Z,35.8
2017-05-21T11:58:40.395Z,35.1
2017-05-21T11:59:43.129Z,36.1
2017-05-21T12:00:46.481Z,35.6
2017-05-21T12:02:52.493Z,35.6
2017-05-21T12:03:54.835Z,35.4
2017-05-21T12:04:57.737Z,35
2017-05-21T12:06:00.455Z,34.2
2017-05-21T12:07:03.538Z,34.2
2017-05-21T12:08:06.689Z,34.8
2017-05-21T12:09:09.404Z,33.1
2017-05-21T12:10:12.112Z,33.8
2017-05-21T12:11:15.521Z,34.2
2017-05-21T12:12:17.731Z,35
2017-05-21T12:13:21.334Z,36
2017-05-21T12:14:23.681Z,35.9
2017-05-21T12:15:26.529Z,34.1
2017-05-21T12:16:29.615Z,35.8
2017-05-21T12:17:32.461Z,33.2
2017-05-21T12:18:35.428Z,32.9
2017-05-21T12:19:38.143Z,33.5
2017-05-21T12:20:40.996Z,31.7
2017-05-21T12:21:44.078Z,32.5
2017-05-21T12:22:46.929Z,33.3
2017-05-21T12:23:50.078Z,32.9
2017-05-21T12:24:52.787Z,32.5
2017-05-21T12:25:55.637Z,33.5
2017-05-21T12:26:58.487Z,34
2017-05-21T12:28:01.334Z,34.5
2017-05-21T12:29:04.349Z,34.3
2017-05-21T12:30:07.194Z,34.2
2017-05-21T12:31:10.041Z,34.1
2017-05-21T12:32:12.757Z,33.5
2017-05-21T12:33:15.603Z,33.5
2017-05-21T12:34:18.704Z,34
2017-05-21T12:35:21.421Z,34.8
2017-05-21T12:36:24.278Z,34.5
2017-05-21T12:37:26.992Z,33.1
2017-05-21T12:39:33.424Z,33.8
2017-05-21T12:40:35.634Z,33.7
2017-05-21T12:41:38.712Z,34.3
2017-05-21T12:42:41.424Z,34.3
2017-05-21T12:43:44.782Z,34.9
2017-05-21T12:44:47.748Z,34.4
2017-05-21T12:45:50.596Z,34.6
2017-05-21T12:46:53.178Z,34.6
2017-05-21T12:47:56.400Z,35.3
2017-05-21T12:48:59.120Z,35.7
2017-05-21T12:50:01.950Z,35.1
2017-05-21T12:51:04.806Z,35.1
2017-05-21T12:52:07.649Z,35.3
2017-05-21T12:53:10.359Z,35.6
2017-05-21T12:54:13.573Z,35.4
2017-05-21T12:55:16.674Z,35.4
2017-05-21T12:56:19.016Z,35.3
2017-05-21T12:57:22.372Z,34.5
2017-05-21T12:58:25.219Z,35.1
2017-05-21T12:59:28.072Z,34.9
2017-05-21T13:00:31.173Z,35.5
2017-05-21T13:01:33.516Z,36
2017-05-21T13:02:36.232Z,36.4
2017-05-21T13:03:39.581Z,36.4
2017-05-21T13:04:42.294Z,35.8
2017-05-21T13:05:45.395Z,37.1
2017-05-21T13:06:47.980Z,35.4
2017-05-21T13:07:51.063Z,35.9
2017-05-21T13:08:53.914Z,35.7
2017-05-21T13:09:56.764Z,34.9
2017-05-21T13:10:59.734Z,35.6
2017-05-21T13:12:02.451Z,35.3
2017-05-21T13:13:05.169Z,34.9
2017-05-21T13:14:08.526Z,34.6
2017-05-21T13:15:11.372Z,35.1
2017-05-21T13:16:14.341Z,35.4
2017-05-21T13:17:17.053Z,35.8
2017-05-21T13:18:19.768Z,36.1
2017-05-21T13:19:22.783Z,36.3
2017-05-21T13:20:25.630Z,35.9
2017-05-21T13:21:28.596Z,35.9
2017-05-21T13:22:31.177Z,35.9
2017-05-21T13:23:34.032Z,35.9
2017-05-21T13:24:36.880Z,36.2
2017-05-21T13:25:39.791Z,35.6
2017-05-21T13:26:43.257Z,34.8
2017-05-21T13:27:45.334Z,36
2017-05-21T13:28:48.687Z,34.6
2017-05-21T13:29:51.267Z,34.4
2017-05-21T13:30:53.979Z,35.2
2017-05-21T13:31:57.577Z,34.7
2017-05-21T13:32:59.794Z,35
2017-05-21T13:34:03.158Z,34.2
2017-05-21T13:36:08.786Z,34.8
2017-05-21T13:37:11.888Z,33.8
2017-05-21T13:38:14.473Z,34.2
2017-05-21T13:39:17.326Z,34.4
2017-05-21T13:40:20.172Z,34.9
2017-05-21T13:41:23.018Z,35.3
2017-05-21T13:42:26.491Z,35.2
2017-05-21T13:43:28.835Z,35.4
2017-05-21T13:44:31.413Z,35.4
2017-05-21T13:45:34.495Z,35.3
2017-05-21T13:46:37.341Z,35.2
2017-05-21T13:47:40.506Z,35.3
2017-05-21T13:48:43.356Z,35.6
2017-05-21T13:49:46.067Z,35.7
2017-05-21T13:50:49.291Z,36.7
2017-05-21T13:51:51.871Z,37.4
2017-05-21T13:52:55.339Z,37.6
2017-05-21T13:53:57.920Z,37.3
2017-05-21T13:55:00.640Z,36.4
2017-05-21T13:56:03.491Z,37
2017-05-21T13:57:06.214Z,35.6
2017-05-21T13:58:09.318Z,36.1
2017-05-21T13:59:12.164Z,37
2017-05-21T14:00:14.743Z,36.2
2017-05-21T14:01:18.090Z,35.9
2017-05-21T14:03:24.103Z,35.8
2017-05-21T14:04:26.452Z,35.9
2017-05-21T14:05:29.300Z,35.4
2017-05-21T14:07:35.063Z,34.6
2017-05-21T14:08:38.587Z,34.3
2017-05-21T14:09:40.795Z,34
2017-05-21T14:10:44.202Z,34.1
2017-05-21T14:11:47.048Z,34.3
2017-05-21T14:12:49.624Z,33.6
2017-05-21T14:13:52.779Z,32.3
2017-05-21T14:14:55.493Z,33
2017-05-21T14:18:04.456Z,32.3
2017-05-21T14:19:07.295Z,31.9
2017-05-21T14:20:10.142Z,33.2
2017-05-21T14:21:12.854Z,34.5
2017-05-21T14:22:15.562Z,35.4
2017-05-21T14:23:18.412Z,36.2
2017-05-21T14:24:21.513Z,36.5
2017-05-21T14:25:24.229Z,36.5
2017-05-21T14:26:27.126Z,36.9
2017-05-21T14:27:29.858Z,36.5
2017-05-21T14:28:33.080Z,37.2
2017-05-21T14:30:39.015Z,37.4